Ever Unicorn — 9V7963 — position and weather

sailwx.info

Track history (hours):
 
Tides and Currents Weather Stations Pressure Air Temp Water Temp Dewpoint Dewpoint Depression Visibility Wind Speed Wind Dir Waves Ship Positions

Ever Unicorn

Last reported at 2014-Oct-13 00:11 UTC. Time now 2014-Oct-20 04:26 UTC.
Position N 35°41' E 025°59'.

Length 285 m; draft 12.4 m.

Type: Ship (hazmat cat D). MMSI: 564995000.

Date/timePositionNaut miles runAvg speedWind from/ knotsBaromVisibWave heightAir tempDewpointWater temp
2014-Oct-13 00:11N 35°41' E 025°59'813.4
2014-Oct-12 23:33N 35°46' E 025°50'1313.5
2014-Oct-12 22:33N 35°53' E 025°36'1413.6
2014-Oct-12 21:33N 35°60' E 025°22'1413.5
2014-Oct-12 20:33N 36°07' E 025°08'1313.4
2014-Oct-12 19:33N 36°14' E 024°53'1413.8
2014-Oct-12 18:33N 36°21' E 024°39'1413.4
2014-Oct-12 17:33N 36°29' E 024°25'1312.9
2014-Oct-12 16:33N 36°36' E 024°12'1413.6
2014-Oct-12 15:30N 36°49' E 024°05'1314.0
2014-Oct-12 14:33N 37°02' E 023°60'3113.5
2014-Oct-12 12:18N 37°30' E 023°46'1013.7
2014-Oct-12 11:33N 37°40' E 023°42'1313.4
2014-Oct-12 10:33N 37°53' E 023°36'5 4.8
2014-Oct-12 09:33N 37°57' E 023°35'0 0.0
2014-Oct-12 08:33N 37°57' E 023°35'0 0.0
2014-Oct-12 07:33N 37°57' E 023°35'0 0.0
2014-Oct-12 06:33N 37°57' E 023°35'0 0.0
2014-Oct-12 05:33N 37°57' E 023°35'0 0.0
2014-Oct-12 04:33N 37°57' E 023°35'0 0.0
2014-Oct-12 03:33N 37°57' E 023°35'0 0.0
2014-Oct-12 02:33N 37°57' E 023°35'0 0.0
2014-Oct-12 01:33N 37°57' E 023°35'0 0.0
2014-Oct-12 00:33N 37°57' E 023°35'0 0.0
2014-Oct-11 23:33N 37°57' E 023°35'0 0.0
2014-Oct-11 22:33N 37°57' E 023°35'0 0.0
2014-Oct-11 21:33N 37°57' E 023°35'0 0.0
2014-Oct-11 20:33N 37°57' E 023°35'0 0.0
2014-Oct-11 19:33N 37°57' E 023°35'0 0.0
2014-Oct-11 18:33N 37°57' E 023°35'2 2.1
2014-Oct-11 17:33N 37°55' E 023°35'1211.7
2014-Oct-11 16:33N 37°45' E 023°43'  
2014-Oct-04 00:31N 36°49' E 023°32'4214.1
2014-Oct-03 21:33N 37°30' E 023°45'1413.8
2014-Oct-03 20:33N 37°43' E 023°41'1413.5
2014-Oct-03 19:33N 37°56' E 023°37'2 1.7
2014-Oct-03 18:32N 37°57' E 023°35'0 0.0
2014-Oct-03 17:32N 37°57' E 023°35'0 0.0
2014-Oct-03 16:32N 37°57' E 023°35'0 0.0
2014-Oct-03 15:24N 37°57' E 023°35'0 0.0
2014-Oct-03 14:33N 37°57' E 023°35'0 0.0
2014-Oct-03 13:30N 37°57' E 023°35'0 0.4
2014-Oct-03 12:33N 37°57' E 023°35'4 3.8
2014-Oct-03 11:33N 37°53' E 023°35'1 0.9
2014-Oct-03 10:33N 37°54' E 023°36'10 9.8
2014-Oct-03 09:33N 37°46' E 023°43'1413.8
2014-Oct-03 08:33N 37°32' E 023°48'4013.4
2014-Oct-03 05:33N 36°54' E 024°04'1713.9
2014-Oct-03 04:20N 36°38' E 024°11'1113.6
2014-Oct-03 03:33N 36°31' E 024°20'1514.2
2014-Oct-03 02:31N 36°23' E 024°36'1414.1
2014-Oct-03 01:33N 36°16' E 024°50'1414.2
2014-Oct-03 00:33N 36°09' E 025°05'  
Track history (hours):
 
Tides and Currents Weather Stations Pressure Air Temp Water Temp Dewpoint Dewpoint Depression Visibility Wind Speed Wind Dir Waves Ship Positions

Ever Unicorn

Last reported at 2014-Oct-13 00:11 UTC. Time now 2014-Oct-20 04:26 UTC.
Position N 35°41' E 025°59'.

Length 285 m; draft 12.4 m.

Type: Ship (hazmat cat D). MMSI: 564995000.

Date/timePositionNaut miles runAvg speedWind from/ knotsBaromVisibWave heightAir tempDewpointWater temp
2014-Oct-13 00:11N 35°41' E 025°59'813.4
2014-Oct-12 23:33N 35°46' E 025°50'1313.5
2014-Oct-12 22:33N 35°53' E 025°36'1413.6
2014-Oct-12 21:33N 35°60' E 025°22'1413.5
2014-Oct-12 20:33N 36°07' E 025°08'1313.4
2014-Oct-12 19:33N 36°14' E 024°53'1413.8
2014-Oct-12 18:33N 36°21' E 024°39'1413.4
2014-Oct-12 17:33N 36°29' E 024°25'1312.9
2014-Oct-12 16:33N 36°36' E 024°12'1413.6
2014-Oct-12 15:30N 36°49' E 024°05'1314.0
2014-Oct-12 14:33N 37°02' E 023°60'3113.5
2014-Oct-12 12:18N 37°30' E 023°46'1013.7
2014-Oct-12 11:33N 37°40' E 023°42'1313.4
2014-Oct-12 10:33N 37°53' E 023°36'5 4.8
2014-Oct-12 09:33N 37°57' E 023°35'0 0.0
2014-Oct-12 08:33N 37°57' E 023°35'0 0.0
2014-Oct-12 07:33N 37°57' E 023°35'0 0.0
2014-Oct-12 06:33N 37°57' E 023°35'0 0.0
2014-Oct-12 05:33N 37°57' E 023°35'0 0.0
2014-Oct-12 04:33N 37°57' E 023°35'0 0.0
2014-Oct-12 03:33N 37°57' E 023°35'0 0.0
2014-Oct-12 02:33N 37°57' E 023°35'0 0.0
2014-Oct-12 01:33N 37°57' E 023°35'0 0.0
2014-Oct-12 00:33N 37°57' E 023°35'0 0.0
2014-Oct-11 23:33N 37°57' E 023°35'0 0.0
2014-Oct-11 22:33N 37°57' E 023°35'0 0.0
2014-Oct-11 21:33N 37°57' E 023°35'0 0.0
2014-Oct-11 20:33N 37°57' E 023°35'0 0.0
2014-Oct-11 19:33N 37°57' E 023°35'0 0.0
2014-Oct-11 18:33N 37°57' E 023°35'2 2.1
2014-Oct-11 17:33N 37°55' E 023°35'1211.7
2014-Oct-11 16:33N 37°45' E 023°43'  
2014-Oct-04 00:31N 36°49' E 023°32'4214.1
2014-Oct-03 21:33N 37°30' E 023°45'1413.8
2014-Oct-03 20:33N 37°43' E 023°41'1413.5
2014-Oct-03 19:33N 37°56' E 023°37'2 1.7
2014-Oct-03 18:32N 37°57' E 023°35'0 0.0
2014-Oct-03 17:32N 37°57' E 023°35'0 0.0
2014-Oct-03 16:32N 37°57' E 023°35'0 0.0
2014-Oct-03 15:24N 37°57' E 023°35'0 0.0
2014-Oct-03 14:33N 37°57' E 023°35'0 0.0
2014-Oct-03 13:30N 37°57' E 023°35'0 0.4
2014-Oct-03 12:33N 37°57' E 023°35'4 3.8
2014-Oct-03 11:33N 37°53' E 023°35'1 0.9
2014-Oct-03 10:33N 37°54' E 023°36'10 9.8
2014-Oct-03 09:33N 37°46' E 023°43'1413.8
2014-Oct-03 08:33N 37°32' E 023°48'4013.4
2014-Oct-03 05:33N 36°54' E 024°04'1713.9
2014-Oct-03 04:20N 36°38' E 024°11'1113.6
2014-Oct-03 03:33N 36°31' E 024°20'1514.2
2014-Oct-03 02:31N 36°23' E 024°36'1414.1
2014-Oct-03 01:33N 36°16' E 024°50'1414.2
2014-Oct-03 00:33N 36°09' E 025°05'  

Dump ship's entire track history